sensor_id;sensor_type;location;lat;lon;timestamp;P1;durP1;ratioP1;P2;durP2;ratioP2
75684;SDS011;64298;46.050;38.164;2022-12-24T00:01:55;24.52;;;10.52;;
75684;SDS011;64298;46.050;38.164;2022-12-24T00:04:21;17.08;;;8.10;;
75684;SDS011;64298;46.050;38.164;2022-12-24T00:06:47;17.90;;;8.25;;
75684;SDS011;64298;46.050;38.164;2022-12-24T00:09:13;13.68;;;5.90;;
75684;SDS011;64298;46.050;38.164;2022-12-24T00:11:39;24.02;;;10.05;;
75684;SDS011;64298;46.050;38.164;2022-12-24T00:14:05;26.67;;;11.10;;
75684;SDS011;64298;46.050;38.164;2022-12-24T00:16:31;21.08;;;9.55;;
75684;SDS011;64298;46.050;38.164;2022-12-24T00:18:56;18.42;;;9.15;;
75684;SDS011;64298;46.050;38.164;2022-12-24T00:21:23;21.02;;;9.18;;
75684;SDS011;64298;46.050;38.164;2022-12-24T00:23:48;20.60;;;8.70;;
75684;SDS011;64298;46.050;38.164;2022-12-24T00:26:14;21.67;;;9.05;;
75684;SDS011;64298;46.050;38.164;2022-12-24T00:28:40;21.73;;;9.65;;
75684;SDS011;64298;46.050;38.164;2022-12-24T00:31:08;21.25;;;9.15;;
75684;SDS011;64298;46.050;38.164;2022-12-24T00:33:37;20.17;;;9.60;;
75684;SDS011;64298;46.050;38.164;2022-12-24T00:36:04;18.17;;;8.70;;
75684;SDS011;64298;46.050;38.164;2022-12-24T00:38:30;21.33;;;9.80;;
75684;SDS011;64298;46.050;38.164;2022-12-24T00:40:57;23.92;;;10.40;;
75684;SDS011;64298;46.050;38.164;2022-12-24T00:43:24;23.33;;;9.85;;
75684;SDS011;64298;46.050;38.164;2022-12-24T00:45:50;21.35;;;9.68;;
75684;SDS011;64298;46.050;38.164;2022-12-24T00:48:16;22.20;;;10.13;;
75684;SDS011;64298;46.050;38.164;2022-12-24T00:50:42;19.08;;;9.07;;
75684;SDS011;64298;46.050;38.164;2022-12-24T00:53:08;17.27;;;7.70;;
75684;SDS011;64298;46.050;38.164;2022-12-24T00:55:34;22.13;;;8.65;;
75684;SDS011;64298;46.050;38.164;2022-12-24T00:58:00;20.55;;;7.40;;
75684;SDS011;64298;46.050;38.164;2022-12-24T01:00:26;22.95;;;9.82;;
75684;SDS011;64298;46.050;38.164;2022-12-24T01:02:52;20.90;;;9.40;;
75684;SDS011;64298;46.050;38.164;2022-12-24T01:05:18;19.75;;;9.18;;
75684;SDS011;64298;46.050;38.164;2022-12-24T01:07:45;18.77;;;8.10;;
75684;SDS011;64298;46.050;38.164;2022-12-24T01:10:12;19.50;;;9.63;;
75684;SDS011;64298;46.050;38.164;2022-12-24T01:12:40;22.77;;;8.70;;
75684;SDS011;64298;46.050;38.164;2022-12-24T01:15:06;20.48;;;9.85;;
75684;SDS011;64298;46.050;38.164;2022-12-24T01:17:33;25.02;;;10.52;;
75684;SDS011;64298;46.050;38.164;2022-12-24T01:19:59;22.17;;;9.57;;
75684;SDS011;64298;46.050;38.164;2022-12-24T01:22:26;22.88;;;8.65;;
75684;SDS011;64298;46.050;38.164;2022-12-24T01:24:52;19.52;;;7.60;;
75684;SDS011;64298;46.050;38.164;2022-12-24T01:30:12;23.17;;;9.88;;
75684;SDS011;64298;46.050;38.164;2022-12-24T01:32:39;20.50;;;9.13;;
75684;SDS011;64298;46.050;38.164;2022-12-24T01:35:05;19.38;;;9.82;;
75684;SDS011;64298;46.050;38.164;2022-12-24T01:37:31;21.23;;;8.40;;
75684;SDS011;64298;46.050;38.164;2022-12-24T01:39:57;19.90;;;8.82;;
75684;SDS011;64298;46.050;38.164;2022-12-24T01:42:43;16.15;;;6.70;;
75684;SDS011;64298;46.050;38.164;2022-12-24T01:48:21;22.45;;;9.15;;
75684;SDS011;64298;46.050;38.164;2022-12-24T01:53:56;19.13;;;8.27;;
75684;SDS011;64298;46.050;38.164;2022-12-24T01:56:25;18.30;;;8.80;;
75684;SDS011;64298;46.050;38.164;2022-12-24T01:58:54;20.05;;;8.13;;
75684;SDS011;64298;46.050;38.164;2022-12-24T02:01:24;19.85;;;9.40;;
75684;SDS011;64298;46.050;38.164;2022-12-24T02:03:51;20.48;;;8.85;;
75684;SDS011;64298;46.050;38.164;2022-12-24T02:06:17;18.70;;;9.18;;
75684;SDS011;64298;46.050;38.164;2022-12-24T02:08:45;17.92;;;9.00;;
75684;SDS011;64298;46.050;38.164;2022-12-24T02:11:14;21.42;;;9.02;;
75684;SDS011;64298;46.050;38.164;2022-12-24T02:13:42;16.00;;;7.95;;
75684;SDS011;64298;46.050;38.164;2022-12-24T02:30:04;21.67;;;9.45;;
75684;SDS011;64298;46.050;38.164;2022-12-24T02:35:17;21.10;;;9.35;;
75684;SDS011;64298;46.050;38.164;2022-12-24T02:38:26;19.50;;;8.43;;
75684;SDS011;64298;46.050;38.164;2022-12-24T02:41:24;20.02;;;9.05;;
75684;SDS011;64298;46.050;38.164;2022-12-24T02:43:47;23.27;;;8.95;;
75684;SDS011;64298;46.050;38.164;2022-12-24T02:46:23;22.50;;;9.45;;
75684;SDS011;64298;46.050;38.164;2022-12-24T02:48:53;18.02;;;7.97;;
75684;SDS011;64298;46.050;38.164;2022-12-24T02:51:22;16.92;;;8.38;;
75684;SDS011;64298;46.050;38.164;2022-12-24T02:53:49;17.90;;;8.13;;
75684;SDS011;64298;46.050;38.164;2022-12-24T03:10:37;23.65;;;10.32;;
75684;SDS011;64298;46.050;38.164;2022-12-24T03:13:09;27.30;;;12.90;;
75684;SDS011;64298;46.050;38.164;2022-12-24T03:15:39;23.45;;;10.80;;
75684;SDS011;64298;46.050;38.164;2022-12-24T03:18:07;19.08;;;10.10;;
75684;SDS011;64298;46.050;38.164;2022-12-24T03:20:43;21.90;;;9.45;;
75684;SDS011;64298;46.050;38.164;2022-12-24T03:23:12;21.17;;;10.63;;
75684;SDS011;64298;46.050;38.164;2022-12-24T03:25:39;16.17;;;7.25;;
75684;SDS011;64298;46.050;38.164;2022-12-24T03:28:07;14.05;;;8.02;;
75684;SDS011;64298;46.050;38.164;2022-12-24T03:30:38;20.95;;;8.43;;
75684;SDS011;64298;46.050;38.164;2022-12-24T03:33:09;16.45;;;6.13;;
75684;SDS011;64298;46.050;38.164;2022-12-24T03:35:36;17.88;;;7.50;;
75684;SDS011;64298;46.050;38.164;2022-12-24T03:38:02;17.88;;;8.68;;
75684;SDS011;64298;46.050;38.164;2022-12-24T03:40:28;12.60;;;5.75;;
75684;SDS011;64298;46.050;38.164;2022-12-24T03:42:55;17.80;;;9.73;;
75684;SDS011;64298;46.050;38.164;2022-12-24T03:45:21;18.58;;;7.72;;
75684;SDS011;64298;46.050;38.164;2022-12-24T03:47:47;16.52;;;8.95;;
75684;SDS011;64298;46.050;38.164;2022-12-24T03:50:13;19.10;;;8.80;;
75684;SDS011;64298;46.050;38.164;2022-12-24T03:52:39;18.55;;;8.35;;
75684;SDS011;64298;46.050;38.164;2022-12-24T03:55:05;17.85;;;7.70;;
75684;SDS011;64298;46.050;38.164;2022-12-24T03:57:31;23.17;;;9.80;;
75684;SDS011;64298;46.050;38.164;2022-12-24T03:59:57;17.95;;;8.98;;
75684;SDS011;64298;46.050;38.164;2022-12-24T04:02:23;21.65;;;9.30;;
75684;SDS011;64298;46.050;38.164;2022-12-24T04:04:49;11.95;;;5.65;;
75684;SDS011;64298;46.050;38.164;2022-12-24T04:07:15;23.02;;;9.90;;
75684;SDS011;64298;46.050;38.164;2022-12-24T04:09:41;17.88;;;8.93;;
75684;SDS011;64298;46.050;38.164;2022-12-24T04:12:07;16.60;;;7.15;;
75684;SDS011;64298;46.050;38.164;2022-12-24T04:14:33;16.73;;;7.22;;
75684;SDS011;64298;46.050;38.164;2022-12-24T04:16:59;19.63;;;7.85;;
75684;SDS011;64298;46.050;38.164;2022-12-24T04:19:25;20.00;;;7.93;;
75684;SDS011;64298;46.050;38.164;2022-12-24T04:21:51;14.93;;;7.57;;
75684;SDS011;64298;46.050;38.164;2022-12-24T04:24:17;14.52;;;6.63;;
75684;SDS011;64298;46.050;38.164;2022-12-24T04:26:43;15.90;;;7.38;;
75684;SDS011;64298;46.050;38.164;2022-12-24T04:29:09;24.85;;;9.55;;
75684;SDS011;64298;46.050;38.164;2022-12-24T04:31:35;15.77;;;6.78;;
75684;SDS011;64298;46.050;38.164;2022-12-24T04:34:01;19.88;;;9.05;;
75684;SDS011;64298;46.050;38.164;2022-12-24T04:36:27;15.90;;;7.68;;
75684;SDS011;64298;46.050;38.164;2022-12-24T04:38:53;18.90;;;7.07;;
75684;SDS011;64298;46.050;38.164;2022-12-24T04:41:37;17.60;;;6.60;;
75684;SDS011;64298;46.050;38.164;2022-12-24T04:44:03;16.23;;;7.00;;
75684;SDS011;64298;46.050;38.164;2022-12-24T04:46:29;14.93;;;6.70;;
75684;SDS011;64298;46.050;38.164;2022-12-24T04:49:15;15.98;;;8.45;;
75684;SDS011;64298;46.050;38.164;2022-12-24T04:51:41;18.60;;;7.63;;
75684;SDS011;64298;46.050;38.164;2022-12-24T04:54:07;15.40;;;6.07;;
75684;SDS011;64298;46.050;38.164;2022-12-24T04:56:51;14.57;;;5.85;;
75684;SDS011;64298;46.050;38.164;2022-12-24T04:59:17;15.15;;;7.07;;
75684;SDS011;64298;46.050;38.164;2022-12-24T05:01:43;19.33;;;8.18;;
75684;SDS011;64298;46.050;38.164;2022-12-24T05:04:27;18.90;;;7.20;;
75684;SDS011;64298;46.050;38.164;2022-12-24T05:06:53;21.30;;;8.75;;
75684;SDS011;64298;46.050;38.164;2022-12-24T05:09:19;16.00;;;7.50;;
75684;SDS011;64298;46.050;38.164;2022-12-24T05:12:04;15.40;;;7.90;;
75684;SDS011;64298;46.050;38.164;2022-12-24T05:14:30;18.50;;;8.10;;
75684;SDS011;64298;46.050;38.164;2022-12-24T05:16:56;14.00;;;6.57;;
75684;SDS011;64298;46.050;38.164;2022-12-24T05:19:22;15.65;;;7.00;;
75684;SDS011;64298;46.050;38.164;2022-12-24T05:21:48;15.73;;;6.80;;
75684;SDS011;64298;46.050;38.164;2022-12-24T05:24:34;16.90;;;7.05;;
75684;SDS011;64298;46.050;38.164;2022-12-24T05:27:18;15.18;;;5.40;;
75684;SDS011;64298;46.050;38.164;2022-12-24T05:29:44;15.88;;;7.90;;
75684;SDS011;64298;46.050;38.164;2022-12-24T05:32:10;15.73;;;7.25;;
75684;SDS011;64298;46.050;38.164;2022-12-24T05:34:36;15.85;;;7.10;;
75684;SDS011;64298;46.050;38.164;2022-12-24T05:37:02;13.13;;;6.05;;
75684;SDS011;64298;46.050;38.164;2022-12-24T05:39:28;14.23;;;7.40;;
75684;SDS011;64298;46.050;38.164;2022-12-24T05:41:54;18.80;;;7.60;;
75684;SDS011;64298;46.050;38.164;2022-12-24T05:44:20;14.48;;;7.07;;
75684;SDS011;64298;46.050;38.164;2022-12-24T05:46:46;16.42;;;7.13;;
75684;SDS011;64298;46.050;38.164;2022-12-24T05:49:12;13.30;;;7.40;;
75684;SDS011;64298;46.050;38.164;2022-12-24T05:51:38;13.98;;;6.25;;
75684;SDS011;64298;46.050;38.164;2022-12-24T05:54:05;15.50;;;7.40;;
75684;SDS011;64298;46.050;38.164;2022-12-24T05:56:31;16.05;;;7.93;;
75684;SDS011;64298;46.050;38.164;2022-12-24T05:58:57;17.15;;;8.30;;
75684;SDS011;64298;46.050;38.164;2022-12-24T06:01:24;21.52;;;8.65;;
75684;SDS011;64298;46.050;38.164;2022-12-24T06:03:50;17.95;;;8.52;;
75684;SDS011;64298;46.050;38.164;2022-12-24T06:06:21;15.32;;;7.88;;
75684;SDS011;64298;46.050;38.164;2022-12-24T06:09:07;17.58;;;7.45;;
75684;SDS011;64298;46.050;38.164;2022-12-24T06:11:33;20.42;;;9.88;;
75684;SDS011;64298;46.050;38.164;2022-12-24T06:13:59;21.90;;;8.80;;
75684;SDS011;64298;46.050;38.164;2022-12-24T06:16:26;17.42;;;8.45;;
75684;SDS011;64298;46.050;38.164;2022-12-24T06:18:52;14.73;;;6.03;;
75684;SDS011;64298;46.050;38.164;2022-12-24T06:21:18;13.98;;;6.40;;
75684;SDS011;64298;46.050;38.164;2022-12-24T06:23:44;13.30;;;5.72;;
75684;SDS011;64298;46.050;38.164;2022-12-24T06:26:12;15.48;;;6.07;;
75684;SDS011;64298;46.050;38.164;2022-12-24T06:28:39;16.15;;;8.43;;
75684;SDS011;64298;46.050;38.164;2022-12-24T06:31:06;14.18;;;7.45;;
75684;SDS011;64298;46.050;38.164;2022-12-24T06:33:36;14.00;;;6.63;;
75684;SDS011;64298;46.050;38.164;2022-12-24T06:36:05;17.15;;;7.00;;
75684;SDS011;64298;46.050;38.164;2022-12-24T06:38:32;14.65;;;6.97;;
75684;SDS011;64298;46.050;38.164;2022-12-24T06:40:58;12.02;;;5.57;;
75684;SDS011;64298;46.050;38.164;2022-12-24T06:43:24;9.68;;;4.53;;
75684;SDS011;64298;46.050;38.164;2022-12-24T06:45:50;12.02;;;5.78;;
75684;SDS011;64298;46.050;38.164;2022-12-24T06:48:17;13.50;;;7.18;;
75684;SDS011;64298;46.050;38.164;2022-12-24T06:50:43;12.32;;;5.97;;
75684;SDS011;64298;46.050;38.164;2022-12-24T06:53:09;7.88;;;4.20;;
75684;SDS011;64298;46.050;38.164;2022-12-24T06:55:35;12.10;;;5.30;;
75684;SDS011;64298;46.050;38.164;2022-12-24T06:58:02;11.70;;;5.95;;
75684;SDS011;64298;46.050;38.164;2022-12-24T07:00:28;12.43;;;4.45;;
75684;SDS011;64298;46.050;38.164;2022-12-24T07:02:54;14.45;;;5.43;;
75684;SDS011;64298;46.050;38.164;2022-12-24T07:05:20;11.52;;;5.88;;
75684;SDS011;64298;46.050;38.164;2022-12-24T07:07:46;14.55;;;5.93;;
75684;SDS011;64298;46.050;38.164;2022-12-24T07:10:13;15.50;;;5.72;;
75684;SDS011;64298;46.050;38.164;2022-12-24T07:12:41;15.63;;;6.93;;
75684;SDS011;64298;46.050;38.164;2022-12-24T07:15:08;13.27;;;6.57;;
75684;SDS011;64298;46.050;38.164;2022-12-24T07:17:35;21.20;;;6.40;;
75684;SDS011;64298;46.050;38.164;2022-12-24T07:20:01;11.98;;;5.50;;
75684;SDS011;64298;46.050;38.164;2022-12-24T07:22:27;13.13;;;6.15;;
75684;SDS011;64298;46.050;38.164;2022-12-24T07:24:53;10.02;;;3.95;;
75684;SDS011;64298;46.050;38.164;2022-12-24T07:27:19;16.15;;;6.72;;
75684;SDS011;64298;46.050;38.164;2022-12-24T07:29:45;14.70;;;7.82;;
75684;SDS011;64298;46.050;38.164;2022-12-24T07:32:12;16.02;;;6.90;;
75684;SDS011;64298;46.050;38.164;2022-12-24T07:34:37;11.48;;;5.68;;
75684;SDS011;64298;46.050;38.164;2022-12-24T07:37:04;15.77;;;6.82;;
75684;SDS011;64298;46.050;38.164;2022-12-24T07:39:30;12.90;;;4.93;;
75684;SDS011;64298;46.050;38.164;2022-12-24T07:41:56;8.00;;;3.65;;
75684;SDS011;64298;46.050;38.164;2022-12-24T07:44:23;11.32;;;5.00;;
75684;SDS011;64298;46.050;38.164;2022-12-24T07:46:49;11.60;;;5.28;;
75684;SDS011;64298;46.050;38.164;2022-12-24T07:49:15;12.40;;;7.05;;
75684;SDS011;64298;46.050;38.164;2022-12-24T07:51:42;11.93;;;5.78;;
75684;SDS011;64298;46.050;38.164;2022-12-24T07:54:07;16.35;;;6.78;;
75684;SDS011;64298;46.050;38.164;2022-12-24T07:56:33;6.80;;;3.20;;
75684;SDS011;64298;46.050;38.164;2022-12-24T07:58:59;23.40;;;7.38;;
75684;SDS011;64298;46.050;38.164;2022-12-24T08:01:25;21.02;;;6.60;;
75684;SDS011;64298;46.050;38.164;2022-12-24T08:03:51;13.02;;;5.85;;
75684;SDS011;64298;46.050;38.164;2022-12-24T08:06:21;15.60;;;6.13;;
75684;SDS011;64298;46.050;38.164;2022-12-24T08:08:47;10.95;;;5.30;;
75684;SDS011;64298;46.050;38.164;2022-12-24T08:11:32;12.02;;;6.07;;
75684;SDS011;64298;46.050;38.164;2022-12-24T08:13:58;13.75;;;5.80;;
75684;SDS011;64298;46.050;38.164;2022-12-24T08:16:24;18.13;;;5.95;;
75684;SDS011;64298;46.050;38.164;2022-12-24T08:19:08;20.20;;;5.72;;
75684;SDS011;64298;46.050;38.164;2022-12-24T08:21:34;19.73;;;6.78;;
75684;SDS011;64298;46.050;38.164;2022-12-24T08:24:00;23.13;;;6.10;;
75684;SDS011;64298;46.050;38.164;2022-12-24T08:26:26;11.85;;;5.32;;
75684;SDS011;64298;46.050;38.164;2022-12-24T08:28:52;11.55;;;5.03;;
75684;SDS011;64298;46.050;38.164;2022-12-24T08:31:18;12.65;;;5.53;;
75684;SDS011;64298;46.050;38.164;2022-12-24T08:33:44;19.20;;;7.20;;
75684;SDS011;64298;46.050;38.164;2022-12-24T08:36:10;18.25;;;6.63;;
75684;SDS011;64298;46.050;38.164;2022-12-24T08:38:40;17.17;;;6.28;;
75684;SDS011;64298;46.050;38.164;2022-12-24T08:41:06;14.82;;;6.22;;
75684;SDS011;64298;46.050;38.164;2022-12-24T08:43:32;19.63;;;6.43;;
75684;SDS011;64298;46.050;38.164;2022-12-24T08:46:04;23.73;;;5.88;;
75684;SDS011;64298;46.050;38.164;2022-12-24T08:48:31;9.68;;;5.15;;
75684;SDS011;64298;46.050;38.164;2022-12-24T08:50:57;15.45;;;5.47;;
75684;SDS011;64298;46.050;38.164;2022-12-24T08:53:24;15.10;;;5.47;;
75684;SDS011;64298;46.050;38.164;2022-12-24T08:55:49;14.38;;;4.85;;
75684;SDS011;64298;46.050;38.164;2022-12-24T08:58:15;11.13;;;5.07;;
75684;SDS011;64298;46.050;38.164;2022-12-24T09:00:41;9.82;;;5.30;;
75684;SDS011;64298;46.050;38.164;2022-12-24T09:03:10;8.77;;;4.80;;
75684;SDS011;64298;46.050;38.164;2022-12-24T09:05:39;7.78;;;4.75;;
75684;SDS011;64298;46.050;38.164;2022-12-24T09:08:05;6.63;;;2.85;;
75684;SDS011;64298;46.050;38.164;2022-12-24T09:10:31;10.60;;;5.95;;
75684;SDS011;64298;46.050;38.164;2022-12-24T09:12:57;8.00;;;3.88;;
75684;SDS011;64298;46.050;38.164;2022-12-24T09:15:23;9.32;;;4.60;;
75684;SDS011;64298;46.050;38.164;2022-12-24T09:17:49;12.02;;;5.15;;
75684;SDS011;64298;46.050;38.164;2022-12-24T09:20:15;9.02;;;4.45;;
75684;SDS011;64298;46.050;38.164;2022-12-24T09:22:41;4.55;;;2.90;;
75684;SDS011;64298;46.050;38.164;2022-12-24T09:25:07;13.43;;;7.15;;
75684;SDS011;64298;46.050;38.164;2022-12-24T09:27:35;12.45;;;5.25;;
75684;SDS011;64298;46.050;38.164;2022-12-24T09:30:01;13.88;;;6.30;;
75684;SDS011;64298;46.050;38.164;2022-12-24T09:32:28;16.33;;;7.22;;
75684;SDS011;64298;46.050;38.164;2022-12-24T09:34:54;14.98;;;7.50;;
75684;SDS011;64298;46.050;38.164;2022-12-24T09:37:20;18.13;;;8.55;;
75684;SDS011;64298;46.050;38.164;2022-12-24T09:39:46;21.55;;;10.38;;
75684;SDS011;64298;46.050;38.164;2022-12-24T09:44:54;12.35;;;7.05;;
75684;SDS011;64298;46.050;38.164;2022-12-24T09:47:34;11.57;;;6.25;;
75684;SDS011;64298;46.050;38.164;2022-12-24T09:50:03;12.88;;;7.32;;
75684;SDS011;64298;46.050;38.164;2022-12-24T09:52:52;10.38;;;6.15;;
75684;SDS011;64298;46.050;38.164;2022-12-24T09:55:27;14.10;;;5.85;;
75684;SDS011;64298;46.050;38.164;2022-12-24T09:57:57;17.55;;;6.35;;
75684;SDS011;64298;46.050;38.164;2022-12-24T10:00:29;18.70;;;6.78;;
75684;SDS011;64298;46.050;38.164;2022-12-24T10:03:05;18.48;;;7.88;;
75684;SDS011;64298;46.050;38.164;2022-12-24T10:06:05;13.57;;;6.72;;
75684;SDS011;64298;46.050;38.164;2022-12-24T10:14:49;14.15;;;6.10;;
75684;SDS011;64298;46.050;38.164;2022-12-24T10:26:10;12.20;;;5.93;;
75684;SDS011;64298;46.050;38.164;2022-12-24T10:28:58;11.30;;;5.78;;
75684;SDS011;64298;46.050;38.164;2022-12-24T10:31:38;12.10;;;6.40;;
75684;SDS011;64298;46.050;38.164;2022-12-24T10:34:10;10.85;;;5.57;;
75684;SDS011;64298;46.050;38.164;2022-12-24T10:36:41;11.73;;;5.45;;
75684;SDS011;64298;46.050;38.164;2022-12-24T10:39:20;10.35;;;5.68;;
75684;SDS011;64298;46.050;38.164;2022-12-24T10:41:50;19.48;;;6.95;;
75684;SDS011;64298;46.050;38.164;2022-12-24T10:44:18;24.65;;;6.40;;
75684;SDS011;64298;46.050;38.164;2022-12-24T10:46:47;10.40;;;5.55;;
75684;SDS011;64298;46.050;38.164;2022-12-24T10:49:18;13.38;;;6.72;;
75684;SDS011;64298;46.050;38.164;2022-12-24T10:51:55;15.80;;;6.05;;
75684;SDS011;64298;46.050;38.164;2022-12-24T10:54:25;13.77;;;6.95;;
75684;SDS011;64298;46.050;38.164;2022-12-24T10:56:56;14.60;;;6.22;;
75684;SDS011;64298;46.050;38.164;2022-12-24T10:59:28;12.77;;;5.97;;
75684;SDS011;64298;46.050;38.164;2022-12-24T11:04:59;8.52;;;4.20;;
75684;SDS011;64298;46.050;38.164;2022-12-24T11:07:27;14.20;;;6.65;;
75684;SDS011;64298;46.050;38.164;2022-12-24T11:12:45;16.05;;;7.18;;
75684;SDS011;64298;46.050;38.164;2022-12-24T11:18:26;15.07;;;7.40;;
75684;SDS011;64298;46.050;38.164;2022-12-24T11:20:52;18.13;;;8.52;;
75684;SDS011;64298;46.050;38.164;2022-12-24T11:23:18;16.42;;;8.25;;
75684;SDS011;64298;46.050;38.164;2022-12-24T11:25:46;12.82;;;6.53;;
75684;SDS011;64298;46.050;38.164;2022-12-24T11:28:22;13.63;;;5.63;;
75684;SDS011;64298;46.050;38.164;2022-12-24T11:31:36;12.18;;;5.57;;
75684;SDS011;64298;46.050;38.164;2022-12-24T11:33:45;12.70;;;6.85;;
75684;SDS011;64298;46.050;38.164;2022-12-24T11:36:12;15.95;;;6.55;;
75684;SDS011;64298;46.050;38.164;2022-12-24T11:38:40;11.30;;;4.88;;
75684;SDS011;64298;46.050;38.164;2022-12-24T11:41:08;12.02;;;5.93;;
75684;SDS011;64298;46.050;38.164;2022-12-24T11:43:45;19.00;;;8.32;;
75684;SDS011;64298;46.050;38.164;2022-12-24T11:46:36;17.40;;;9.13;;
75684;SDS011;64298;46.050;38.164;2022-12-24T11:51:37;18.73;;;7.63;;
75684;SDS011;64298;46.050;38.164;2022-12-24T11:56:56;11.68;;;6.03;;
75684;SDS011;64298;46.050;38.164;2022-12-24T11:59:33;13.88;;;6.78;;
75684;SDS011;64298;46.050;38.164;2022-12-24T12:05:04;21.63;;;8.57;;
75684;SDS011;64298;46.050;38.164;2022-12-24T12:07:44;18.25;;;8.88;;
75684;SDS011;64298;46.050;38.164;2022-12-24T12:10:24;21.42;;;8.02;;
75684;SDS011;64298;46.050;38.164;2022-12-24T12:12:58;24.27;;;9.93;;
75684;SDS011;64298;46.050;38.164;2022-12-24T12:15:34;32.10;;;10.82;;
75684;SDS011;64298;46.050;38.164;2022-12-24T12:18:17;19.83;;;6.78;;
75684;SDS011;64298;46.050;38.164;2022-12-24T12:23:46;19.65;;;6.38;;
75684;SDS011;64298;46.050;38.164;2022-12-24T12:28:53;18.63;;;6.53;;
75684;SDS011;64298;46.050;38.164;2022-12-24T12:31:59;13.80;;;6.93;;
75684;SDS011;64298;46.050;38.164;2022-12-24T12:34:31;28.65;;;7.40;;
75684;SDS011;64298;46.050;38.164;2022-12-24T12:37:05;29.40;;;9.23;;
75684;SDS011;64298;46.050;38.164;2022-12-24T12:39:36;28.35;;;9.52;;
75684;SDS011;64298;46.050;38.164;2022-12-24T12:42:20;21.15;;;8.65;;
75684;SDS011;64298;46.050;38.164;2022-12-24T12:50:57;14.60;;;6.22;;
75684;SDS011;64298;46.050;38.164;2022-12-24T12:56:38;22.48;;;8.40;;
75684;SDS011;64298;46.050;38.164;2022-12-24T12:59:13;30.27;;;9.13;;
75684;SDS011;64298;46.050;38.164;2022-12-24T13:10:31;21.23;;;7.63;;
75684;SDS011;64298;46.050;38.164;2022-12-24T13:19:16;24.38;;;10.55;;
75684;SDS011;64298;46.050;38.164;2022-12-24T13:21:54;25.00;;;10.05;;
75684;SDS011;64298;46.050;38.164;2022-12-24T13:24:21;27.55;;;10.73;;
75684;SDS011;64298;46.050;38.164;2022-12-24T13:26:59;26.50;;;8.85;;
75684;SDS011;64298;46.050;38.164;2022-12-24T13:29:38;8.25;;;4.18;;
75684;SDS011;64298;46.050;38.164;2022-12-24T13:39:59;23.52;;;10.43;;
75684;SDS011;64298;46.050;38.164;2022-12-24T13:43:08;25.50;;;11.27;;
75684;SDS011;64298;46.050;38.164;2022-12-24T13:50:47;19.95;;;10.68;;
75684;SDS011;64298;46.050;38.164;2022-12-24T13:58:30;16.75;;;7.75;;
75684;SDS011;64298;46.050;38.164;2022-12-24T14:00:58;14.35;;;7.32;;
75684;SDS011;64298;46.050;38.164;2022-12-24T14:03:56;17.35;;;7.72;;
75684;SDS011;64298;46.050;38.164;2022-12-24T14:06:25;15.13;;;6.50;;
75684;SDS011;64298;46.050;38.164;2022-12-24T14:09:09;15.15;;;7.22;;
75684;SDS011;64298;46.050;38.164;2022-12-24T14:14:33;13.00;;;6.80;;
75684;SDS011;64298;46.050;38.164;2022-12-24T14:17:02;18.60;;;6.35;;
75684;SDS011;64298;46.050;38.164;2022-12-24T14:19:44;16.77;;;6.88;;
75684;SDS011;64298;46.050;38.164;2022-12-24T14:22:30;18.38;;;6.72;;
75684;SDS011;64298;46.050;38.164;2022-12-24T14:27:42;28.15;;;7.05;;
75684;SDS011;64298;46.050;38.164;2022-12-24T14:32:42;24.52;;;7.47;;
75684;SDS011;64298;46.050;38.164;2022-12-24T14:40:26;15.07;;;8.10;;
75684;SDS011;64298;46.050;38.164;2022-12-24T14:46:16;11.68;;;5.57;;
75684;SDS011;64298;46.050;38.164;2022-12-24T14:51:56;14.82;;;5.57;;
75684;SDS011;64298;46.050;38.164;2022-12-24T14:54:42;18.17;;;9.43;;
75684;SDS011;64298;46.050;38.164;2022-12-24T14:59:41;20.20;;;9.23;;
75684;SDS011;64298;46.050;38.164;2022-12-24T15:05:03;16.50;;;9.07;;
75684;SDS011;64298;46.050;38.164;2022-12-24T15:07:32;21.05;;;9.63;;
75684;SDS011;64298;46.050;38.164;2022-12-24T15:10:01;24.30;;;9.82;;
75684;SDS011;64298;46.050;38.164;2022-12-24T15:12:29;19.02;;;9.20;;
75684;SDS011;64298;46.050;38.164;2022-12-24T15:14:56;23.92;;;9.73;;
75684;SDS011;64298;46.050;38.164;2022-12-24T15:17:22;21.15;;;8.70;;
75684;SDS011;64298;46.050;38.164;2022-12-24T15:19:50;26.85;;;10.30;;
75684;SDS011;64298;46.050;38.164;2022-12-24T15:22:21;18.38;;;9.32;;
75684;SDS011;64298;46.050;38.164;2022-12-24T15:24:49;18.48;;;8.23;;
75684;SDS011;64298;46.050;38.164;2022-12-24T15:27:16;22.70;;;9.70;;
75684;SDS011;64298;46.050;38.164;2022-12-24T15:29:48;20.77;;;9.68;;
75684;SDS011;64298;46.050;38.164;2022-12-24T15:32:17;20.17;;;9.25;;
75684;SDS011;64298;46.050;38.164;2022-12-24T15:34:45;21.27;;;11.00;;
75684;SDS011;64298;46.050;38.164;2022-12-24T15:39:42;15.77;;;8.98;;
75684;SDS011;64298;46.050;38.164;2022-12-24T15:42:10;19.42;;;8.15;;
75684;SDS011;64298;46.050;38.164;2022-12-24T15:45:04;18.92;;;8.25;;
75684;SDS011;64298;46.050;38.164;2022-12-24T15:47:30;15.98;;;8.30;;
75684;SDS011;64298;46.050;38.164;2022-12-24T15:53:04;20.17;;;9.18;;
75684;SDS011;64298;46.050;38.164;2022-12-24T15:58:26;19.40;;;7.75;;
75684;SDS011;64298;46.050;38.164;2022-12-24T16:01:01;23.95;;;12.18;;
75684;SDS011;64298;46.050;38.164;2022-12-24T16:03:27;19.90;;;9.10;;
75684;SDS011;64298;46.050;38.164;2022-12-24T16:06:00;20.50;;;9.50;;
75684;SDS011;64298;46.050;38.164;2022-12-24T16:08:33;21.50;;;9.25;;
75684;SDS011;64298;46.050;38.164;2022-12-24T16:13:38;19.80;;;9.30;;
75684;SDS011;64298;46.050;38.164;2022-12-24T16:16:10;19.85;;;8.80;;
75684;SDS011;64298;46.050;38.164;2022-12-24T16:18:42;19.55;;;8.95;;
75684;SDS011;64298;46.050;38.164;2022-12-24T16:21:20;19.08;;;8.43;;
75684;SDS011;64298;46.050;38.164;2022-12-24T16:24:28;20.75;;;8.25;;
75684;SDS011;64298;46.050;38.164;2022-12-24T16:26:55;25.33;;;10.25;;
75684;SDS011;64298;46.050;38.164;2022-12-24T16:29:22;25.58;;;9.55;;
75684;SDS011;64298;46.050;38.164;2022-12-24T16:31:49;24.40;;;10.15;;
75684;SDS011;64298;46.050;38.164;2022-12-24T16:34:15;24.15;;;9.10;;
75684;SDS011;64298;46.050;38.164;2022-12-24T16:36:42;24.52;;;10.98;;
75684;SDS011;64298;46.050;38.164;2022-12-24T16:42:08;18.67;;;7.57;;
75684;SDS011;64298;46.050;38.164;2022-12-24T16:44:52;24.25;;;9.07;;
75684;SDS011;64298;46.050;38.164;2022-12-24T16:47:22;18.77;;;9.13;;
75684;SDS011;64298;46.050;38.164;2022-12-24T16:50:10;18.00;;;8.35;;
75684;SDS011;64298;46.050;38.164;2022-12-24T16:52:40;20.67;;;8.85;;
75684;SDS011;64298;46.050;38.164;2022-12-24T16:55:06;22.50;;;9.95;;
75684;SDS011;64298;46.050;38.164;2022-12-24T16:57:33;18.63;;;9.32;;
75684;SDS011;64298;46.050;38.164;2022-12-24T17:00:01;15.10;;;8.15;;
75684;SDS011;64298;46.050;38.164;2022-12-24T17:02:28;18.02;;;8.93;;
75684;SDS011;64298;46.050;38.164;2022-12-24T17:04:54;12.15;;;6.43;;
75684;SDS011;64298;46.050;38.164;2022-12-24T17:07:20;15.43;;;7.80;;
75684;SDS011;64298;46.050;38.164;2022-12-24T17:09:46;19.45;;;8.93;;
75684;SDS011;64298;46.050;38.164;2022-12-24T17:12:12;15.90;;;8.20;;
75684;SDS011;64298;46.050;38.164;2022-12-24T17:14:39;22.40;;;10.15;;
75684;SDS011;64298;46.050;38.164;2022-12-24T17:17:26;22.88;;;8.25;;
75684;SDS011;64298;46.050;38.164;2022-12-24T17:19:54;18.95;;;9.43;;